Time;durP1;ratioP1;P1;durP2;ratioP2;P2;SDS_P1;SDS_P2;PMS_P1;PMS_P2;Temp;Humidity;BMP_temperature;BMP_pressure;BME280_temperature;BME280_humidity;BME280_pressure;Samples;Min_cycle;Max_cycle;Signal;HPM_P1;HPM_P2
2024/03/18 00:00:35;;;;;;;14.40;13.88;;;;;;;;;;4181090;28;20044;-53
2024/03/18 00:02:36;;;;;;;14.82;14.52;;;;;;;;;;4181138;28;20052;-54
2024/03/18 00:04:36;;;;;;;13.90;13.27;;;;;;;;;;4179435;28;20180;-54
2024/03/18 00:06:37;;;;;;;13.35;12.68;;;;;;;;;;4181109;28;20071;-53
2024/03/18 00:08:37;;;;;;;15.63;14.82;;;;;;;;;;4181092;28;20088;-54
2024/03/18 00:10:38;;;;;;;15.68;15.20;;;;;;;;;;4181063;28;20539;-53
2024/03/18 00:12:39;;;;;;;18.08;17.08;;;;;;;;;;4164193;28;20053;-53
2024/03/18 00:14:43;;;;;;;20.20;18.73;;;;;;;;;;4164623;28;20049;-52
2024/03/18 00:16:43;;;;;;;17.98;17.15;;;;;;;;;;4181159;28;20044;-54
2024/03/18 00:18:44;;;;;;;19.05;17.48;;;;;;;;;;4180658;28;20037;-54
2024/03/18 00:20:44;;;;;;;19.23;17.63;;;;;;;;;;4164251;28;20070;-53
2024/03/18 00:22:45;;;;;;;17.20;15.45;;;;;;;;;;4174022;28;20053;-54
2024/03/18 00:24:46;;;;;;;16.02;15.18;;;;;;;;;;4172259;28;20410;-54
2024/03/18 00:26:46;;;;;;;17.02;15.60;;;;;;;;;;4180644;28;20405;-54
2024/03/18 00:28:47;;;;;;;13.52;12.70;;;;;;;;;;4180750;28;20056;-54
2024/03/18 00:30:48;;;;;;;38.42;30.80;;;;;;;;;;4180627;28;20124;-53
2024/03/18 00:32:48;;;;;;;32.83;26.58;;;;;;;;;;4180829;28;20040;-53
2024/03/18 00:34:52;;;;;;;15.05;14.43;;;;;;;;;;4180424;28;20083;-53
2024/03/18 00:36:52;;;;;;;19.70;18.35;;;;;;;;;;4180505;28;20045;-54
2024/03/18 00:38:53;;;;;;;16.70;15.43;;;;;;;;;;4174142;28;20067;-54
2024/03/18 00:41:44;;;;;;;15.73;14.90;;;;;;;;;;4166352;28;20041;-54
2024/03/18 00:43:17;;;;;;;16.23;15.32;;;;;;;;;;4163839;28;20072;-54
2024/03/18 00:45:18;;;;;;;14.68;13.95;;;;;;;;;;4180651;28;20590;-53
2024/03/18 00:47:18;;;;;;;16.63;15.52;;;;;;;;;;4163849;28;20052;-53
2024/03/18 00:49:19;;;;;;;13.93;13.25;;;;;;;;;;4164131;28;20451;-54
2024/03/18 00:51:20;;;;;;;11.77;11.18;;;;;;;;;;4180238;28;20068;-53
2024/03/18 00:53:21;;;;;;;12.40;11.73;;;;;;;;;;4163778;28;20041;-53
2024/03/18 00:55:22;;;;;;;13.10;12.65;;;;;;;;;;4163966;28;20096;-57
2024/03/18 00:57:22;;;;;;;13.73;13.02;;;;;;;;;;4163590;28;20532;-56
2024/03/18 00:59:23;;;;;;;14.25;13.35;;;;;;;;;;4180123;28;20083;-55
2024/03/18 01:01:23;;;;;;;11.43;10.90;;;;;;;;;;4163615;28;20159;-57
2024/03/18 01:03:24;;;;;;;11.32;10.77;;;;;;;;;;4196334;28;20524;-57
2024/03/18 01:05:25;;;;;;;12.68;11.43;;;;;;;;;;4163537;28;20288;-57
2024/03/18 01:07:25;;;;;;;14.70;13.60;;;;;;;;;;4146815;28;20060;-56
2024/03/18 01:09:26;;;;;;;12.77;11.70;;;;;;;;;;4163396;28;20080;-57
2024/03/18 01:11:26;;;;;;;13.90;13.20;;;;;;;;;;4163562;28;20042;-57
2024/03/18 01:13:32;;;;;;;15.57;14.98;;;;;;;;;;4163361;28;20045;-57
2024/03/18 01:15:33;;;;;;;15.77;15.05;;;;;;;;;;4163323;28;20412;-56
2024/03/18 01:17:33;;;;;;;17.95;17.30;;;;;;;;;;4163376;28;20034;-56
2024/03/18 01:19:36;;;;;;;20.77;19.50;;;;;;;;;;4179680;28;20099;-56
2024/03/18 01:21:37;;;;;;;21.55;20.35;;;;;;;;;;4179967;28;20045;-58
2024/03/18 01:23:38;;;;;;;17.33;16.65;;;;;;;;;;4179614;28;20413;-57
2024/03/18 01:25:38;;;;;;;17.67;17.13;;;;;;;;;;4179737;28;20091;-57
2024/03/18 01:27:43;;;;;;;17.73;17.02;;;;;;;;;;4179591;28;20047;-57
2024/03/18 01:29:45;;;;;;;19.77;18.88;;;;;;;;;;4179634;28;20036;-57
2024/03/18 01:31:46;;;;;;;20.65;19.38;;;;;;;;;;4179656;28;20049;-56
2024/03/18 01:33:47;;;;;;;22.75;21.75;;;;;;;;;;4179609;28;20466;-57
2024/03/18 01:35:49;;;;;;;21.90;21.05;;;;;;;;;;4179567;28;20044;-57
2024/03/18 01:37:49;;;;;;;19.70;19.10;;;;;;;;;;4179380;28;20037;-57
2024/03/18 01:39:50;;;;;;;18.73;18.23;;;;;;;;;;4179545;28;20056;-57
2024/03/18 01:41:50;;;;;;;18.55;18.20;;;;;;;;;;4177978;28;20116;-57
2024/03/18 01:43:51;;;;;;;17.38;16.55;;;;;;;;;;4179204;28;20115;-54
2024/03/18 01:45:51;;;;;;;18.73;17.23;;;;;;;;;;4179040;28;20560;-54
2024/03/18 01:47:52;;;;;;;17.58;16.77;;;;;;;;;;4179379;28;20128;-53
2024/03/18 01:49:53;;;;;;;19.42;18.25;;;;;;;;;;4179108;28;20044;-54
2024/03/18 01:51:54;;;;;;;16.98;15.98;;;;;;;;;;4179328;28;20041;-53
2024/03/18 01:53:56;;;;;;;16.58;15.85;;;;;;;;;;4162500;28;20050;-53
2024/03/18 01:55:57;;;;;;;16.77;16.25;;;;;;;;;;4177379;28;20104;-53
2024/03/18 01:57:58;;;;;;;18.33;17.83;;;;;;;;;;4178595;28;20131;-53
2024/03/18 01:59:59;;;;;;;17.25;16.30;;;;;;;;;;4179400;28;20110;-54
2024/03/18 02:02:00;;;;;;;17.30;16.60;;;;;;;;;;4179388;28;20048;-52
2024/03/18 02:04:08;;;;;;;18.95;18.15;;;;;;;;;;4179063;28;20079;-54
2024/03/18 02:06:09;;;;;;;16.08;15.68;;;;;;;;;;4179149;28;20500;-54
2024/03/18 02:08:09;;;;;;;17.33;16.48;;;;;;;;;;4162783;28;20080;-53
2024/03/18 02:10:10;;;;;;;19.02;18.30;;;;;;;;;;4179411;28;20056;-54
2024/03/18 02:12:11;;;;;;;19.90;18.73;;;;;;;;;;4179159;28;20060;-53
2024/03/18 02:14:12;;;;;;;20.98;19.98;;;;;;;;;;4179257;28;20501;-53
2024/03/18 02:16:13;;;;;;;18.73;17.83;;;;;;;;;;4179099;28;20087;-53
2024/03/18 02:18:13;;;;;;;19.02;18.42;;;;;;;;;;4179127;28;20037;-54
2024/03/18 02:20:14;;;;;;;19.77;18.88;;;;;;;;;;4165412;28;20512;-54
2024/03/18 02:22:15;;;;;;;19.58;18.90;;;;;;;;;;4166025;28;20179;-54
2024/03/18 02:24:16;;;;;;;18.83;17.92;;;;;;;;;;4182615;28;20132;-54
2024/03/18 02:26:17;;;;;;;18.73;17.53;;;;;;;;;;4182798;28;20056;-54
2024/03/18 02:28:17;;;;;;;18.95;18.13;;;;;;;;;;4182758;28;20668;-54
2024/03/18 02:30:18;;;;;;;21.70;20.85;;;;;;;;;;4166096;28;20125;-53
2024/03/18 02:32:19;;;;;;;21.10;20.30;;;;;;;;;;4183031;28;20045;-52
2024/03/18 02:34:19;;;;;;;23.33;22.13;;;;;;;;;;4165798;28;20115;-50
2024/03/18 02:36:20;;;;;;;21.30;20.33;;;;;;;;;;4166121;28;20092;-53
2024/03/18 02:38:20;;;;;;;25.70;23.17;;;;;;;;;;4165753;28;20049;-52
2024/03/18 02:40:21;;;;;;;24.92;24.02;;;;;;;;;;4182605;28;20041;-53
2024/03/18 02:42:22;;;;;;;23.80;22.80;;;;;;;;;;4166056;28;20131;-52
2024/03/18 02:44:22;;;;;;;24.15;22.92;;;;;;;;;;4182372;28;20064;-54
2024/03/18 02:46:23;;;;;;;22.38;21.65;;;;;;;;;;4182421;28;20416;-53
2024/03/18 02:48:24;;;;;;;19.92;19.02;;;;;;;;;;4182234;28;20076;-54
2024/03/18 02:50:25;;;;;;;19.80;19.30;;;;;;;;;;4182382;28;20052;-54
2024/03/18 02:52:25;;;;;;;20.52;19.63;;;;;;;;;;4182123;28;20044;-53
2024/03/18 02:54:26;;;;;;;20.70;19.63;;;;;;;;;;4182473;28;20605;-57
2024/03/18 02:56:26;;;;;;;19.38;18.70;;;;;;;;;;4182057;28;20116;-57
2024/03/18 02:58:27;;;;;;;18.83;18.05;;;;;;;;;;4181939;28;20037;-55
2024/03/18 03:00:28;;;;;;;16.25;15.75;;;;;;;;;;4182214;28;20518;-55
2024/03/18 03:02:28;;;;;;;13.60;13.07;;;;;;;;;;4182218;28;20145;-56
2024/03/18 03:04:29;;;;;;;15.70;14.88;;;;;;;;;;4181675;28;20057;-57
2024/03/18 03:06:30;;;;;;;15.10;14.68;;;;;;;;;;4181895;28;20088;-57
2024/03/18 03:08:30;;;;;;;14.77;14.30;;;;;;;;;;4165198;28;20045;-58
2024/03/18 03:10:31;;;;;;;15.77;15.23;;;;;;;;;;4181739;28;20041;-57
2024/03/18 03:12:32;;;;;;;16.30;15.73;;;;;;;;;;4181736;28;20041;-57
2024/03/18 03:14:32;;;;;;;17.55;16.92;;;;;;;;;;4181985;28;20037;-57
2024/03/18 03:16:33;;;;;;;18.83;18.13;;;;;;;;;;4165377;28;20037;-54
2024/03/18 03:18:34;;;;;;;16.42;15.73;;;;;;;;;;4165498;28;20065;-53
2024/03/18 03:20:35;;;;;;;18.33;17.77;;;;;;;;;;4165464;28;20128;-54
2024/03/18 03:22:36;;;;;;;17.50;16.38;;;;;;;;;;4165186;28;20498;-54
2024/03/18 03:24:36;;;;;;;13.95;13.45;;;;;;;;;;4165250;28;20049;-53
2024/03/18 03:26:38;;;;;;;19.15;18.40;;;;;;;;;;4165393;28;20037;-54
2024/03/18 03:28:38;;;;;;;16.80;16.17;;;;;;;;;;4181879;28;20079;-53
2024/03/18 03:30:39;;;;;;;17.05;16.55;;;;;;;;;;4164065;28;20120;-54
2024/03/18 03:32:39;;;;;;;15.95;15.13;;;;;;;;;;4164686;28;20048;-53
2024/03/18 03:34:40;;;;;;;15.60;15.20;;;;;;;;;;4165060;28;20048;-54
2024/03/18 03:36:41;;;;;;;13.13;12.63;;;;;;;;;;4165040;28;20064;-54
2024/03/18 03:38:41;;;;;;;13.45;12.82;;;;;;;;;;4164766;28;20049;-54
2024/03/18 03:40:49;;;;;;;14.65;14.07;;;;;;;;;;4164960;28;20133;-53
2024/03/18 03:42:50;;;;;;;17.92;17.08;;;;;;;;;;4163716;28;20052;-55
2024/03/18 03:44:50;;;;;;;17.80;17.00;;;;;;;;;;4164269;28;20505;-55
2024/03/18 03:46:51;;;;;;;16.38;15.68;;;;;;;;;;4164089;28;20505;-53
2024/03/18 03:48:52;;;;;;;20.73;19.00;;;;;;;;;;4164230;28;20524;-53
2024/03/18 03:50:53;;;;;;;18.67;17.83;;;;;;;;;;4164159;28;20042;-53
2024/03/18 03:52:53;;;;;;;20.15;19.00;;;;;;;;;;4164287;28;20042;-53
2024/03/18 03:54:54;;;;;;;18.15;17.50;;;;;;;;;;4164605;28;20578;-53
2024/03/18 03:56:55;;;;;;;15.63;15.23;;;;;;;;;;4164556;28;20118;-54
2024/03/18 03:58:55;;;;;;;17.88;17.10;;;;;;;;;;4181316;28;20044;-54
2024/03/18 04:00:56;;;;;;;16.35;15.63;;;;;;;;;;4164832;28;20056;-53
2024/03/18 04:02:57;;;;;;;18.15;17.65;;;;;;;;;;4148213;28;20065;-54
2024/03/18 04:04:59;;;;;;;20.00;19.35;;;;;;;;;;4164113;28;20088;-55
2024/03/18 04:07:00;;;;;;;20.65;19.90;;;;;;;;;;4165167;28;20046;-54
2024/03/18 04:09:00;;;;;;;17.45;16.83;;;;;;;;;;4180910;28;20068;-53
2024/03/18 04:11:01;;;;;;;18.52;17.45;;;;;;;;;;4180922;28;20052;-53
2024/03/18 04:13:03;;;;;;;18.45;17.42;;;;;;;;;;4180932;28;20063;-54
2024/03/18 04:15:07;;;;;;;18.33;17.33;;;;;;;;;;4180929;28;20037;-54
2024/03/18 04:17:10;;;;;;;19.15;17.90;;;;;;;;;;4180975;28;20067;-54
2024/03/18 04:19:10;;;;;;;20.00;18.92;;;;;;;;;;4180835;28;20044;-54
2024/03/18 04:24:27;;;;;;;21.70;20.33;;;;;;;;;;4165730;28;20040;-55
2024/03/18 04:26:28;;;;;;;23.67;22.35;;;;;;;;;;4181051;28;20128;-52
2024/03/18 04:28:29;;;;;;;21.08;20.15;;;;;;;;;;4180660;28;20037;-54
2024/03/18 04:30:32;;;;;;;24.92;23.98;;;;;;;;;;4180445;28;20037;-54
2024/03/18 04:32:33;;;;;;;21.80;20.98;;;;;;;;;;4180740;28;20045;-54
2024/03/18 04:34:33;;;;;;;24.52;23.58;;;;;;;;;;4163943;28;20049;-53
2024/03/18 04:36:34;;;;;;;23.02;21.88;;;;;;;;;;4180432;28;20068;-54
2024/03/18 04:38:34;;;;;;;20.23;19.40;;;;;;;;;;4180458;28;20033;-54
2024/03/18 04:40:35;;;;;;;19.20;18.17;;;;;;;;;;4180578;28;20072;-54
2024/03/18 04:42:36;;;;;;;20.45;19.45;;;;;;;;;;4180015;28;20128;-52
2024/03/18 04:44:36;;;;;;;22.42;20.95;;;;;;;;;;4180737;28;20040;-53
2024/03/18 04:46:37;;;;;;;19.48;18.40;;;;;;;;;;4180198;28;20408;-54
2024/03/18 04:48:37;;;;;;;20.13;19.38;;;;;;;;;;4180421;28;20484;-54
2024/03/18 04:50:38;;;;;;;22.73;21.92;;;;;;;;;;4180465;28;20045;-55
2024/03/18 04:52:39;;;;;;;22.70;21.73;;;;;;;;;;4180203;28;20182;-55
2024/03/18 04:54:39;;;;;;;19.90;19.05;;;;;;;;;;4180360;28;20130;-54
2024/03/18 04:56:40;;;;;;;20.48;19.73;;;;;;;;;;4180573;28;20522;-55
2024/03/18 04:58:40;;;;;;;19.48;18.65;;;;;;;;;;4180176;28;20401;-55
2024/03/18 05:00:41;;;;;;;20.35;19.55;;;;;;;;;;4180094;28;20045;-54
2024/03/18 05:02:42;;;;;;;17.25;16.65;;;;;;;;;;4180104;28;20036;-54
2024/03/18 05:04:42;;;;;;;19.30;18.42;;;;;;;;;;4179762;28;20136;-54
2024/03/18 05:06:43;;;;;;;17.88;16.70;;;;;;;;;;4180108;28;20045;-54
2024/03/18 05:08:43;;;;;;;19.40;18.23;;;;;;;;;;4179928;28;20127;-53
2024/03/18 05:10:45;;;;;;;20.55;19.75;;;;;;;;;;4180003;28;20076;-53
2024/03/18 05:12:45;;;;;;;21.20;20.25;;;;;;;;;;4178588;28;20098;-54
2024/03/18 05:14:47;;;;;;;21.05;20.27;;;;;;;;;;4164458;28;20045;-54
2024/03/18 05:16:48;;;;;;;21.25;20.00;;;;;;;;;;4163571;28;20041;-53
2024/03/18 05:18:48;;;;;;;20.42;19.55;;;;;;;;;;4179966;28;20088;-53
2024/03/18 05:20:49;;;;;;;20.75;19.73;;;;;;;;;;4163589;28;20049;-54
2024/03/18 05:22:50;;;;;;;19.60;18.70;;;;;;;;;;4163515;28;20128;-54
2024/03/18 05:24:50;;;;;;;16.13;15.48;;;;;;;;;;4168275;28;20037;-54
2024/03/18 05:26:51;;;;;;;14.63;13.60;;;;;;;;;;4163898;28;20045;-53
2024/03/18 05:28:52;;;;;;;14.45;13.75;;;;;;;;;;4147011;28;20498;-54
2024/03/18 05:30:52;;;;;;;17.77;17.08;;;;;;;;;;4163238;28;20045;-54
2024/03/18 05:32:53;;;;;;;21.85;21.05;;;;;;;;;;4163397;28;20079;-55
2024/03/18 05:34:54;;;;;;;23.73;22.33;;;;;;;;;;4174013;28;20126;-55
2024/03/18 05:36:54;;;;;;;21.38;20.58;;;;;;;;;;4179959;28;20045;-55
2024/03/18 05:38:55;;;;;;;21.33;20.10;;;;;;;;;;4179981;28;20049;-54
2024/03/18 05:40:56;;;;;;;21.67;20.75;;;;;;;;;;4179672;28;20055;-55
2024/03/18 05:42:57;;;;;;;22.15;21.35;;;;;;;;;;4178269;28;20037;-54
2024/03/18 05:44:58;;;;;;;21.55;20.40;;;;;;;;;;4179713;28;20041;-53
2024/03/18 05:46:59;;;;;;;20.23;19.03;;;;;;;;;;4179579;28;20037;-54
2024/03/18 05:49:00;;;;;;;20.17;19.45;;;;;;;;;;4163012;28;20306;-54
2024/03/18 05:51:00;;;;;;;20.10;19.10;;;;;;;;;;4179731;28;20132;-54
2024/03/18 05:53:01;;;;;;;17.67;16.85;;;;;;;;;;4179524;28;20091;-55
2024/03/18 05:55:02;;;;;;;19.90;18.77;;;;;;;;;;4178692;28;20037;-53
2024/03/18 05:57:02;;;;;;;17.52;16.83;;;;;;;;;;4179529;28;20044;-54
2024/03/18 05:59:03;;;;;;;16.98;15.90;;;;;;;;;;4179451;28;20055;-52
2024/03/18 06:01:03;;;;;;;17.65;16.85;;;;;;;;;;4179398;28;20073;-54
2024/03/18 06:03:05;;;;;;;21.13;20.20;;;;;;;;;;4178940;28;20585;-55
2024/03/18 06:05:06;;;;;;;20.50;19.73;;;;;;;;;;4179699;28;20095;-54
2024/03/18 06:07:07;;;;;;;22.02;21.23;;;;;;;;;;4162976;28;20299;-53
2024/03/18 06:09:07;;;;;;;21.65;20.77;;;;;;;;;;4179238;28;20424;-52
2024/03/18 06:11:08;;;;;;;17.00;16.50;;;;;;;;;;4179075;28;20075;-54
2024/03/18 06:13:08;;;;;;;19.50;18.70;;;;;;;;;;4179121;28;20045;-54
2024/03/18 06:15:09;;;;;;;18.75;17.98;;;;;;;;;;4162401;28;20437;-62
2024/03/18 06:17:10;;;;;;;18.88;18.27;;;;;;;;;;4179167;28;20041;-53
2024/03/18 06:19:14;;;;;;;21.38;20.30;;;;;;;;;;4161939;28;20050;-59
2024/03/18 06:21:17;;;;;;;14.80;14.02;;;;;;;;;;4178685;28;20041;-59
2024/03/18 06:23:18;;;;;;;17.13;16.02;;;;;;;;;;4178892;28;20045;-59
2024/03/18 06:27:38;;;;;;;14.02;13.30;;;;;;;;;;4178612;28;20467;-62
2024/03/18 06:29:39;;;;;;;16.30;15.70;;;;;;;;;;4178660;28;20053;-62
2024/03/18 06:31:39;;;;;;;15.07;14.45;;;;;;;;;;4173263;28;20123;-62
2024/03/18 06:33:40;;;;;;;14.90;14.43;;;;;;;;;;4178316;28;20041;-62
2024/03/18 06:35:41;;;;;;;15.65;14.90;;;;;;;;;;4177853;28;20551;-62
2024/03/18 06:37:42;;;;;;;19.60;18.13;;;;;;;;;;4178718;28;20055;-62
2024/03/18 06:39:43;;;;;;;21.17;19.88;;;;;;;;;;4179015;28;20377;-62
2024/03/18 06:41:43;;;;;;;21.08;19.58;;;;;;;;;;4178960;28;20048;-62
2024/03/18 06:43:44;;;;;;;20.10;19.30;;;;;;;;;;4179047;28;20509;-62
2024/03/18 06:45:45;;;;;;;19.73;18.65;;;;;;;;;;4178868;28;20048;-62
2024/03/18 06:47:45;;;;;;;17.92;17.05;;;;;;;;;;4179143;28;20049;-60
2024/03/18 06:49:46;;;;;;;19.38;18.38;;;;;;;;;;4179079;28;20056;-59
2024/03/18 06:51:48;;;;;;;19.60;18.58;;;;;;;;;;4162571;28;20053;-59
2024/03/18 06:53:49;;;;;;;20.37;19.00;;;;;;;;;;4179049;28;20045;-60
2024/03/18 06:55:49;;;;;;;19.08;18.25;;;;;;;;;;4178751;28;20598;-59
2024/03/18 06:57:50;;;;;;;16.88;16.17;;;;;;;;;;4178881;28;20040;-59
2024/03/18 06:59:50;;;;;;;21.08;20.08;;;;;;;;;;4179242;28;20045;-59
2024/03/18 07:01:51;;;;;;;19.20;18.05;;;;;;;;;;4178780;28;20510;-60
2024/03/18 07:03:52;;;;;;;16.10;15.35;;;;;;;;;;4178773;28;20501;-59
2024/03/18 07:05:52;;;;;;;16.50;15.88;;;;;;;;;;4180281;28;20124;-60
2024/03/18 07:07:53;;;;;;;18.65;17.75;;;;;;;;;;4181872;28;20409;-59
2024/03/18 07:09:54;;;;;;;17.33;16.42;;;;;;;;;;4181795;28;20135;-59
2024/03/18 07:11:54;;;;;;;31.40;27.80;;;;;;;;;;4181883;28;20041;-59
2024/03/18 07:13:55;;;;;;;67.55;47.03;;;;;;;;;;4181916;28;20044;-58
2024/03/18 07:15:55;;;;;;;30.33;26.05;;;;;;;;;;4165087;28;20060;-59
2024/03/18 07:17:56;;;;;;;19.50;18.27;;;;;;;;;;4181619;28;20037;-59
2024/03/18 07:19:56;;;;;;;21.17;20.08;;;;;;;;;;4181667;28;20041;-59
2024/03/18 07:21:57;;;;;;;27.10;25.20;;;;;;;;;;4165227;28;20072;-59
2024/03/18 07:24:00;;;;;;;27.83;25.38;;;;;;;;;;4181631;28;20570;-59
2024/03/18 07:26:04;;;;;;;25.85;23.98;;;;;;;;;;4181533;28;20158;-59
2024/03/18 07:28:05;;;;;;;22.75;21.35;;;;;;;;;;4181593;28;20041;-59
2024/03/18 07:30:06;;;;;;;22.35;20.60;;;;;;;;;;4181428;28;20103;-59
2024/03/18 07:32:07;;;;;;;25.17;23.55;;;;;;;;;;4181528;28;20045;-59
2024/03/18 07:34:08;;;;;;;26.55;24.55;;;;;;;;;;4181541;28;20512;-58
2024/03/18 07:36:08;;;;;;;26.65;24.80;;;;;;;;;;4181469;28;20135;-59
2024/03/18 07:38:09;;;;;;;23.77;22.10;;;;;;;;;;4181656;28;20072;-59
2024/03/18 07:40:12;;;;;;;22.52;21.15;;;;;;;;;;4181403;28;20497;-59
2024/03/18 07:42:13;;;;;;;22.45;20.77;;;;;;;;;;4164957;28;20521;-60
2024/03/18 07:44:14;;;;;;;21.48;20.25;;;;;;;;;;4181414;28;20045;-59
2024/03/18 07:46:15;;;;;;;21.85;20.25;;;;;;;;;;4165227;28;20037;-59
2024/03/18 07:48:15;;;;;;;18.02;16.90;;;;;;;;;;4181184;28;20136;-59
2024/03/18 07:50:16;;;;;;;18.17;16.90;;;;;;;;;;4181204;28;20143;-59
2024/03/18 07:52:18;;;;;;;16.77;15.57;;;;;;;;;;4181244;28;20045;-59
2024/03/18 07:54:19;;;;;;;15.38;14.30;;;;;;;;;;4181116;28;20049;-59
2024/03/18 07:56:19;;;;;;;14.23;13.05;;;;;;;;;;4181296;28;20084;-59
2024/03/18 07:58:20;;;;;;;13.40;12.10;;;;;;;;;;4181347;28;20126;-61
2024/03/18 08:00:20;;;;;;;13.55;12.65;;;;;;;;;;4181236;28;20052;-62
2024/03/18 08:02:22;;;;;;;11.98;11.02;;;;;;;;;;4164936;28;20120;-62
2024/03/18 08:04:22;;;;;;;14.45;13.73;;;;;;;;;;4180785;28;20525;-62
2024/03/18 08:06:23;;;;;;;12.98;12.02;;;;;;;;;;4164441;28;20037;-62
2024/03/18 08:08:23;;;;;;;13.02;12.23;;;;;;;;;;4181302;28;20397;-62
2024/03/18 08:10:24;;;;;;;14.15;13.15;;;;;;;;;;4180820;28;20044;-62
2024/03/18 08:12:25;;;;;;;15.45;14.52;;;;;;;;;;4181147;28;20049;-62
2024/03/18 08:14:26;;;;;;;14.95;12.15;;;;;;;;;;4180818;28;20045;-62
2024/03/18 08:16:27;;;;;;;13.13;11.98;;;;;;;;;;4180793;28;20033;-62
2024/03/18 08:18:28;;;;;;;12.55;11.57;;;;;;;;;;4163708;28;20485;-62
2024/03/18 08:20:28;;;;;;;13.32;12.52;;;;;;;;;;4180679;28;20416;-62
2024/03/18 08:22:29;;;;;;;12.85;11.88;;;;;;;;;;4164227;28;20037;-62
2024/03/18 08:24:29;;;;;;;12.68;11.90;;;;;;;;;;4180650;28;20048;-62
2024/03/18 08:26:33;;;;;;;13.63;13.05;;;;;;;;;;4180665;28;20041;-62
2024/03/18 08:28:33;;;;;;;14.68;13.70;;;;;;;;;;4180641;28;20045;-62
2024/03/18 08:30:34;;;;;;;16.55;15.38;;;;;;;;;;4180434;28;20060;-62
2024/03/18 08:32:34;;;;;;;15.50;14.13;;;;;;;;;;4180614;28;20120;-62
2024/03/18 08:34:35;;;;;;;12.90;12.15;;;;;;;;;;4180575;28;20040;-62
2024/03/18 08:36:36;;;;;;;16.40;13.50;;;;;;;;;;4180571;28;20175;-62
2024/03/18 08:38:37;;;;;;;12.88;11.90;;;;;;;;;;4180450;28;20037;-62
2024/03/18 08:40:37;;;;;;;12.50;11.63;;;;;;;;;;4180566;28;20063;-62
2024/03/18 08:42:38;;;;;;;11.32;10.50;;;;;;;;;;4180665;28;20045;-62
2024/03/18 08:44:39;;;;;;;12.23;11.48;;;;;;;;;;4180475;28;20052;-62
2024/03/18 08:46:40;;;;;;;10.80;10.27;;;;;;;;;;4180608;28;20087;-62
2024/03/18 08:48:42;;;;;;;12.23;11.30;;;;;;;;;;4180274;28;20071;-62
2024/03/18 08:50:42;;;;;;;14.02;12.73;;;;;;;;;;4180295;28;20041;-62
2024/03/18 08:52:45;;;;;;;12.73;11.65;;;;;;;;;;4180646;28;20041;-63
2024/03/18 08:54:47;;;;;;;13.40;12.35;;;;;;;;;;4180162;28;20067;-62
2024/03/18 08:56:47;;;;;;;12.65;12.10;;;;;;;;;;4180418;28;20049;-62
2024/03/18 08:58:50;;;;;;;13.55;12.75;;;;;;;;;;4180209;28;20094;-62
2024/03/18 09:00:50;;;;;;;12.13;11.45;;;;;;;;;;4180181;28;20040;-62
2024/03/18 09:02:52;;;;;;;12.85;12.15;;;;;;;;;;4180295;28;20041;-62
2024/03/18 09:04:53;;;;;;;13.13;12.32;;;;;;;;;;4179933;28;20049;-62
2024/03/18 09:06:53;;;;;;;15.43;14.05;;;;;;;;;;4180090;28;20041;-63
2024/03/18 09:08:54;;;;;;;20.98;18.80;;;;;;;;;;4180286;28;20041;-63
2024/03/18 09:10:54;;;;;;;24.60;21.23;;;;;;;;;;4180102;28;20123;-63
2024/03/18 09:12:55;;;;;;;39.97;24.70;;;;;;;;;;4163465;28;20556;-63
2024/03/18 09:14:55;;;;;;;36.63;25.55;;;;;;;;;;4179822;28;20076;-63
2024/03/18 09:16:57;;;;;;;24.58;19.80;;;;;;;;;;4179920;28;20124;-63
2024/03/18 09:18:57;;;;;;;22.63;19.67;;;;;;;;;;4179815;28;20044;-63
2024/03/18 09:20:58;;;;;;;17.17;15.65;;;;;;;;;;4179827;28;20495;-63
2024/03/18 09:22:59;;;;;;;16.05;14.60;;;;;;;;;;4179778;28;20039;-63
2024/03/18 09:24:59;;;;;;;15.75;14.52;;;;;;;;;;4179924;28;20540;-64
2024/03/18 09:27:02;;;;;;;17.10;15.48;;;;;;;;;;4179712;28;20052;-64
2024/03/18 09:29:02;;;;;;;17.17;16.00;;;;;;;;;;4179726;28;20445;-65
2024/03/18 09:31:03;;;;;;;16.83;15.13;;;;;;;;;;4179831;28;20045;-64
2024/03/18 09:33:04;;;;;;;14.50;13.57;;;;;;;;;;4179732;28;20051;-64
2024/03/18 09:35:07;;;;;;;13.30;12.60;;;;;;;;;;4179693;28;20044;-64
2024/03/18 09:37:08;;;;;;;13.55;12.45;;;;;;;;;;4179865;28;20048;-64
2024/03/18 09:39:08;;;;;;;14.43;13.40;;;;;;;;;;4179933;28;20044;-64
2024/03/18 09:41:13;;;;;;;13.15;12.18;;;;;;;;;;4178630;28;20123;-64
2024/03/18 09:43:14;;;;;;;13.70;12.75;;;;;;;;;;4179861;28;20041;-64
2024/03/18 09:45:18;;;;;;;13.65;12.82;;;;;;;;;;4179630;28;20047;-64
2024/03/18 09:47:20;;;;;;;14.02;13.23;;;;;;;;;;4179520;28;20048;-64
2024/03/18 09:49:22;;;;;;;;;;;;;;;;;;4179995;28;20041;-64
2024/03/18 09:51:26;;;;;;;17.52;15.85;;;;;;;;;;4179627;28;19944;-63
2024/03/18 09:53:30;;;;;;;19.55;18.05;;;;;;;;;;4179703;28;20067;-64
2024/03/18 09:55:30;;;;;;;18.63;16.85;;;;;;;;;;4179484;28;20037;-64
2024/03/18 09:57:31;;;;;;;16.92;15.70;;;;;;;;;;4178490;28;20044;-64
2024/03/18 09:59:31;;;;;;;17.08;15.60;;;;;;;;;;4162971;28;20045;-61
2024/03/18 10:01:36;;;;;;;18.35;16.95;;;;;;;;;;4178773;28;20041;-61
2024/03/18 10:03:39;;;;;;;18.48;16.27;;;;;;;;;;4179131;28;20045;-61
2024/03/18 10:05:41;;;;;;;20.40;18.75;;;;;;;;;;4179418;28;20110;-61
2024/03/18 10:07:45;;;;;;;20.38;18.63;;;;;;;;;;4179453;28;20047;-61
2024/03/18 10:09:47;;;;;;;20.70;18.70;;;;;;;;;;4179375;28;20555;-61
2024/03/18 10:11:48;;;;;;;24.38;22.00;;;;;;;;;;4179483;28;20052;-61
2024/03/18 10:13:49;;;;;;;19.52;17.95;;;;;;;;;;4179310;28;20049;-61
2024/03/18 10:15:50;;;;;;;21.02;19.23;;;;;;;;;;4178958;28;20033;-61
2024/03/18 10:17:52;;;;;;;18.60;17.48;;;;;;;;;;4179620;28;20037;-63
2024/03/18 10:19:53;;;;;;;22.40;20.95;;;;;;;;;;4179402;28;20440;-62
2024/03/18 10:21:53;;;;;;;23.90;22.25;;;;;;;;;;4179499;28;20045;-61
2024/03/18 10:23:55;;;;;;;21.23;19.55;;;;;;;;;;4179309;28;20047;-61
2024/03/18 10:25:56;;;;;;;19.48;18.25;;;;;;;;;;4178888;28;20045;-62
2024/03/18 10:27:56;;;;;;;23.30;21.58;;;;;;;;;;4178187;28;20412;-61
2024/03/18 10:29:57;;;;;;;20.25;18.88;;;;;;;;;;4178958;28;20118;-62
2024/03/18 10:31:57;;;;;;;15.77;14.95;;;;;;;;;;4178244;28;20130;-61
2024/03/18 10:33:59;;;;;;;17.92;16.85;;;;;;;;;;4179016;28;20119;-61
2024/03/18 10:36:00;;;;;;;20.00;18.80;;;;;;;;;;4178074;28;20082;-62
2024/03/18 10:38:03;;;;;;;20.43;19.20;;;;;;;;;;4175559;28;20048;-61
2024/03/18 10:40:10;;;;;;;22.10;20.48;;;;;;;;;;4179217;28;20041;-61
2024/03/18 10:42:14;;;;;;;20.73;19.73;;;;;;;;;;4181673;28;20448;-61
2024/03/18 10:44:17;;;;;;;23.55;22.02;;;;;;;;;;4182005;28;20033;-61
2024/03/18 10:46:17;;;;;;;26.80;24.83;;;;;;;;;;4181722;28;20520;-60
2024/03/18 10:48:18;;;;;;;24.02;22.02;;;;;;;;;;4182198;28;20090;-61
2024/03/18 10:50:19;;;;;;;23.02;20.83;;;;;;;;;;4181067;28;20080;-61
2024/03/18 10:52:20;;;;;;;20.17;18.75;;;;;;;;;;4181637;28;20045;-61
2024/03/18 10:54:21;;;;;;;19.80;18.80;;;;;;;;;;4181752;28;20037;-61
2024/03/18 10:56:21;;;;;;;20.90;19.73;;;;;;;;;;4182400;28;20547;-61
2024/03/18 10:58:24;;;;;;;18.20;17.35;;;;;;;;;;4182135;28;20037;-61
2024/03/18 11:00:24;;;;;;;18.25;17.42;;;;;;;;;;4181346;28;20500;-60
2024/03/18 11:02:26;;;;;;;19.90;18.83;;;;;;;;;;4180616;28;20075;-61
2024/03/18 11:04:27;;;;;;;18.55;17.58;;;;;;;;;;4164938;28;20053;-60
2024/03/18 11:06:28;;;;;;;20.17;18.67;;;;;;;;;;4181336;28;20041;-61
2024/03/18 11:08:29;;;;;;;17.60;16.63;;;;;;;;;;4181596;28;20445;-61
2024/03/18 11:10:31;;;;;;;19.10;18.17;;;;;;;;;;4181682;28;20132;-60
2024/03/18 11:12:35;;;;;;;18.17;17.45;;;;;;;;;;4165379;28;20453;-60
2024/03/18 11:14:35;;;;;;;20.00;18.98;;;;;;;;;;4181211;28;20032;-61
2024/03/18 11:16:40;;;;;;;19.25;18.13;;;;;;;;;;4181401;28;20045;-60
2024/03/18 11:18:45;;;;;;;17.30;16.50;;;;;;;;;;4181313;28;20045;-61
2024/03/18 11:20:50;;;;;;;19.55;18.02;;;;;;;;;;4181721;28;20041;-60
2024/03/18 11:22:57;;;;;;;19.83;19.02;;;;;;;;;;4181526;28;20041;-60
2024/03/18 11:24:58;;;;;;;23.55;22.08;;;;;;;;;;4179930;28;20560;-60
2024/03/18 11:27:00;;;;;;;19.52;18.48;;;;;;;;;;4181826;28;20041;-61
2024/03/18 11:29:03;;;;;;;20.13;18.60;;;;;;;;;;4181430;28;20052;-60
2024/03/18 11:31:04;;;;;;;21.67;20.27;;;;;;;;;;4180826;28;20036;-60
2024/03/18 11:33:12;;;;;;;21.58;20.25;;;;;;;;;;4181719;28;20044;-60
2024/03/18 11:35:13;;;;;;;20.42;18.92;;;;;;;;;;4181368;28;20045;-61
2024/03/18 11:37:15;;;;;;;21.42;20.15;;;;;;;;;;4178194;28;20116;-60
2024/03/18 11:39:17;;;;;;;19.45;18.17;;;;;;;;;;4178732;28;20041;-60
2024/03/18 11:41:17;;;;;;;20.58;19.05;;;;;;;;;;4181445;28;20122;-60
2024/03/18 11:43:18;;;;;;;26.58;24.58;;;;;;;;;;4168580;28;20045;-60
2024/03/18 11:45:19;;;;;;;22.35;20.75;;;;;;;;;;4181443;28;20412;-60
2024/03/18 11:47:20;;;;;;;17.45;16.02;;;;;;;;;;4181444;28;20095;-60
2024/03/18 11:49:21;;;;;;;14.55;13.18;;;;;;;;;;4181213;28;20041;-60
2024/03/18 11:51:22;;;;;;;13.88;12.85;;;;;;;;;;4179573;28;20048;-60